Home > Products > Valid Products > TAF

000
FTUS45 KCYS 010540
TAFRWL
TAF
KRWL 010540Z 0106/0206 22010KT P6SM FEW080
     FM011800 23015G25KT P6SM VCTS SCT080CB
     FM020300 21008KT P6SM SCT100=



000
FTUS45 KCYS 010540
TAFCYS
TAF
KCYS 010540Z 0106/0206 VRB04KT P6SM BKN100
     FM011000 27007KT P6SM SCT200
     FM012100 23010KT P6SM VCTS BKN080CB
     FM020300 21007KT P6SM SCT100=



000
FTUS45 KCYS 010540
TAFLAR
TAF
KLAR 010540Z 0106/0206 17012KT P6SM SCT080 BKN200
     FM010800 20007KT P6SM SCT200
     FM011800 26012KT P6SM VCTS BKN060CB
     FM020300 21008KT P6SM SCT100=



000
FTUS45 KCYS 010540
TAFRWL
TAF
KRWL 010540Z 0106/0206 22010KT P6SM FEW080
     FM011800 23015G25KT P6SM VCTS SCT080CB
     FM020300 21008KT P6SM SCT100=



000
FTUS45 KCYS 010540
TAFCYS
TAF
KCYS 010540Z 0106/0206 VRB04KT P6SM BKN100
     FM011000 27007KT P6SM SCT200
     FM012100 23010KT P6SM VCTS BKN080CB
     FM020300 21007KT P6SM SCT100=



000
FTUS45 KCYS 010540
TAFLAR
TAF
KLAR 010540Z 0106/0206 17012KT P6SM SCT080 BKN200
     FM010800 20007KT P6SM SCT200
     FM011800 26012KT P6SM VCTS BKN060CB
     FM020300 21008KT P6SM SCT100=



000
FTUS45 KCYS 010540
TAFLAR
TAF
KLAR 010540Z 0106/0206 17012KT P6SM SCT080 BKN200
     FM010800 20007KT P6SM SCT200
     FM011800 26012KT P6SM VCTS BKN060CB
     FM020300 21008KT P6SM SCT100=



000
FTUS45 KCYS 010540
TAFRWL
TAF
KRWL 010540Z 0106/0206 22010KT P6SM FEW080
     FM011800 23015G25KT P6SM VCTS SCT080CB
     FM020300 21008KT P6SM SCT100=



000
FTUS45 KCYS 010540
TAFCYS
TAF
KCYS 010540Z 0106/0206 VRB04KT P6SM BKN100
     FM011000 27007KT P6SM SCT200
     FM012100 23010KT P6SM VCTS BKN080CB
     FM020300 21007KT P6SM SCT100=



000
FTUS45 KCYS 010540
TAFRWL
TAF
KRWL 010540Z 0106/0206 22010KT P6SM FEW080
     FM011800 23015G25KT P6SM VCTS SCT080CB
     FM020300 21008KT P6SM SCT100=



000
FTUS45 KCYS 010540
TAFCYS
TAF
KCYS 010540Z 0106/0206 VRB04KT P6SM BKN100
     FM011000 27007KT P6SM SCT200
     FM012100 23010KT P6SM VCTS BKN080CB
     FM020300 21007KT P6SM SCT100=



000
FTUS45 KCYS 010540
TAFLAR
TAF
KLAR 010540Z 0106/0206 17012KT P6SM SCT080 BKN200
     FM010800 20007KT P6SM SCT200
     FM011800 26012KT P6SM VCTS BKN060CB
     FM020300 21008KT P6SM SCT100=



000
FTUS45 KCYS 010346 AAB
TAFLAR
TAF AMD
KLAR 010346Z 0104/0124 17012KT P6SM SCT080 BKN200
     FM010800 21007KT P6SM SCT200
     FM011800 27012KT P6SM VCTS BKN060CB=



000
FTUS45 KCYS 010346 AAB
TAFLAR
TAF AMD
KLAR 010346Z 0104/0124 17012KT P6SM SCT080 BKN200
     FM010800 21007KT P6SM SCT200
     FM011800 27012KT P6SM VCTS BKN060CB=



000
FTUS45 KCYS 010236 AAA
TAFLAR
TAF AMD
KLAR 010236Z 0103/0124 14008KT P6SM BKN080
     FM010600 21007KT P6SM BKN200
     FM011800 27012KT P6SM VCTS BKN060CB=



000
FTUS45 KCYS 010236 AAA
TAFLAR
TAF AMD
KLAR 010236Z 0103/0124 14008KT P6SM BKN080
     FM010600 21007KT P6SM BKN200
     FM011800 27012KT P6SM VCTS BKN060CB=



000
FTUS45 KCYS 010235 AAA
TAFCYS
TAF AMD
KCYS 010235Z 0103/0124 28010KT P6SM VCSH BKN070
     FM010500 26007KT P6SM SCT080 BKN200
     FM012100 23010KT P6SM VCTS BKN080CB=



000
FTUS45 KCYS 010235 AAA
TAFCYS
TAF AMD
KCYS 010235Z 0103/0124 28010KT P6SM VCSH BKN070
     FM010500 26007KT P6SM SCT080 BKN200
     FM012100 23010KT P6SM VCTS BKN080CB=



000
FTUS45 KCYS 010235 AAA
TAFCYS
TAF AMD
KCYS 010235Z 0103/0124 28010KT P6SM VCSH BKN070
     FM010500 26007KT P6SM SCT080 BKN200
     FM012100 23010KT P6SM VCTS BKN080CB=



000
FTUS45 KCYS 010235 AAA
TAFCYS
TAF AMD
KCYS 010235Z 0103/0124 28010KT P6SM VCSH BKN070
     FM010500 26007KT P6SM SCT080 BKN200
     FM012100 23010KT P6SM VCTS BKN080CB=



000
FTUS45 KCYS 312320
TAFRWL
TAF
KRWL 312320Z 0100/0124 23015G25KT P6SM VCTS BKN080CB
      TEMPO 0100/0102 VRB25G35KT 6SM -TSRA OVC080CB
     FM010200 23005KT P6SM FEW080
     FM011800 23015G25KT P6SM VCTS SCT080CB=



000
FTUS45 KCYS 312320
TAFLAR
TAF
KLAR 312320Z 0100/0124 22008KT P6SM VCTS BKN060CB
      TEMPO 0100/0103 VRB15G25KT 6SM -TSRA OVC060CB
     FM010300 18007KT P6SM SCT070
     FM011800 27012KT P6SM VCTS BKN060CB=



000
FTUS45 KCYS 312320
TAFLAR
TAF
KLAR 312320Z 0100/0124 22008KT P6SM VCTS BKN060CB
      TEMPO 0100/0103 VRB15G25KT 6SM -TSRA OVC060CB
     FM010300 18007KT P6SM SCT070
     FM011800 27012KT P6SM VCTS BKN060CB=



000
FTUS45 KCYS 312320
TAFCYS
TAF
KCYS 312320Z 0100/0124 23007KT P6SM VCTS BKN080CB
      TEMPO 0100/0104 VRB15G25KT 6SM -TSRA OVC080CB
     FM010400 26007KT P6SM SCT100
     FM012100 23010KT P6SM VCTS BKN080CB=



000
FTUS45 KCYS 311721
TAFRWL
TAF
KRWL 311721Z 3118/0118 24016G25KT P6SM SCT250
     FM010100 24007KT P6SM SKC=



000
FTUS45 KCYS 311721
TAFCYS
TAF
KCYS 311721Z 3118/0118 31005KT P6SM FEW120
     FM312100 VRB05KT P6SM VCTS SCT080CB
     FM010000 18008KT P6SM SCT080
     FM010700 25008KT P6SM SKC=



000
FTUS45 KCYS 311721
TAFLAR
TAF
KLAR 311721Z 3118/0118 22006KT P6SM BKN200
     FM312000 20009KT P6SM VCTS SCT070CB
     FM010000 17008KT P6SM SCT100=



000
FTUS45 KCYS 311721
TAFLAR
TAF
KLAR 311721Z 3118/0118 22006KT P6SM BKN200
     FM312000 20009KT P6SM VCTS SCT070CB
     FM010000 17008KT P6SM SCT100=



000
FTUS45 KCYS 311721
TAFLAR
TAF
KLAR 311721Z 3118/0118 22006KT P6SM BKN200
     FM312000 20009KT P6SM VCTS SCT070CB
     FM010000 17008KT P6SM SCT100=



000
FTUS45 KCYS 311721
TAFCYS
TAF
KCYS 311721Z 3118/0118 31005KT P6SM FEW120
     FM312100 VRB05KT P6SM VCTS SCT080CB
     FM010000 18008KT P6SM SCT080
     FM010700 25008KT P6SM SKC=



000
FTUS45 KCYS 311721
TAFRWL
TAF
KRWL 311721Z 3118/0118 24016G25KT P6SM SCT250
     FM010100 24007KT P6SM SKC=



000
FTUS45 KCYS 311721
TAFCYS
TAF
KCYS 311721Z 3118/0118 31005KT P6SM FEW120
     FM312100 VRB05KT P6SM VCTS SCT080CB
     FM010000 18008KT P6SM SCT080
     FM010700 25008KT P6SM SKC=



000
FTUS45 KCYS 311721
TAFRWL
TAF
KRWL 311721Z 3118/0118 24016G25KT P6SM SCT250
     FM010100 24007KT P6SM SKC=



000
FTUS45 KCYS 311721
TAFRWL
TAF
KRWL 311721Z 3118/0118 24016G25KT P6SM SCT250
     FM010100 24007KT P6SM SKC=



000
FTUS45 KCYS 311721
TAFLAR
TAF
KLAR 311721Z 3118/0118 22006KT P6SM BKN200
     FM312000 20009KT P6SM VCTS SCT070CB
     FM010000 17008KT P6SM SCT100=



000
FTUS45 KCYS 311721
TAFCYS
TAF
KCYS 311721Z 3118/0118 31005KT P6SM FEW120
     FM312100 VRB05KT P6SM VCTS SCT080CB
     FM010000 18008KT P6SM SCT080
     FM010700 25008KT P6SM SKC=



000
FTUS45 KCYS 311605 AAB
TAFCYS
TAF AMD
KCYS 311605Z 3116/0112 29010KT P6SM SCT120
     FM312000 18010KT P6SM VCTS SCT080CB BKN110
     FM010100 18010KT P6SM SCT080
     FM010400 24008KT P6SM SCT080=



000
FTUS45 KCYS 311605 AAB
TAFCYS
TAF AMD
KCYS 311605Z 3116/0112 29010KT P6SM SCT120
     FM312000 18010KT P6SM VCTS SCT080CB BKN110
     FM010100 18010KT P6SM SCT080
     FM010400 24008KT P6SM SCT080=



000
FTUS45 KCYS 311605 AAB
TAFCYS
TAF AMD
KCYS 311605Z 3116/0112 29010KT P6SM SCT120
     FM312000 18010KT P6SM VCTS SCT080CB BKN110
     FM010100 18010KT P6SM SCT080
     FM010400 24008KT P6SM SCT080=



000
FTUS45 KCYS 311605 AAB
TAFCYS
TAF AMD
KCYS 311605Z 3116/0112 29010KT P6SM SCT120
     FM312000 18010KT P6SM VCTS SCT080CB BKN110
     FM010100 18010KT P6SM SCT080
     FM010400 24008KT P6SM SCT080=



000
FTUS45 KCYS 311359 AAA
TAFRWL
TAF AMD
KRWL 311359Z 3114/0112 31008KT P6SM SCT120
     FM311900 24018G30KT P6SM SCT090
     FM010100 24008KT P6SM SCT090=



000
FTUS45 KCYS 311359 AAA
TAFRWL
TAF AMD
KRWL 311359Z 3114/0112 31008KT P6SM SCT120
     FM311900 24018G30KT P6SM SCT090
     FM010100 24008KT P6SM SCT090=



000
FTUS45 KCYS 311359 AAA
TAFRWL
TAF AMD
KRWL 311359Z 3114/0112 31008KT P6SM SCT120
     FM311900 24018G30KT P6SM SCT090
     FM010100 24008KT P6SM SCT090=



000
FTUS45 KCYS 311359 AAA
TAFRWL
TAF AMD
KRWL 311359Z 3114/0112 31008KT P6SM SCT120
     FM311900 24018G30KT P6SM SCT090
     FM010100 24008KT P6SM SCT090=



000
FTUS45 KCYS 311358 AAA
TAFCYS
TAF AMD
KCYS 311358Z 3114/0112 29010KT P6SM BKN120
     FM311600 34012KT P6SM BKN110
     FM312000 18010KT P6SM VCTS SCT080CB BKN110
     FM010100 18010KT P6SM SCT080
     FM010400 24008KT P6SM SCT080=



000
FTUS45 KCYS 311358 AAA
TAFCYS
TAF AMD
KCYS 311358Z 3114/0112 29010KT P6SM BKN120
     FM311600 34012KT P6SM BKN110
     FM312000 18010KT P6SM VCTS SCT080CB BKN110
     FM010100 18010KT P6SM SCT080
     FM010400 24008KT P6SM SCT080=



000
FTUS45 KCYS 311358 AAA
TAFCYS
TAF AMD
KCYS 311358Z 3114/0112 29010KT P6SM BKN120
     FM311600 34012KT P6SM BKN110
     FM312000 18010KT P6SM VCTS SCT080CB BKN110
     FM010100 18010KT P6SM SCT080
     FM010400 24008KT P6SM SCT080=



000
FTUS45 KCYS 311120
TAFLAR
TAF
KLAR 311120Z 3112/0112 24009KT P6SM VCSH BKN090
     FM311800 15010G20KT P6SM VCTS BKN070CB
     FM010100 17008KT P6SM BKN100=



000
FTUS45 KCYS 311120
TAFCYS
TAF
KCYS 311120Z 3112/0112 29022G34KT P6SM SCT100
     FM311600 34012G23KT P6SM SCT100
     FM311900 18010G20KT P6SM VCTS BKN080CB
     FM010100 18010KT P6SM SCT080
     FM010400 24008KT P6SM SCT080=



000
FTUS45 KCYS 311120
TAFCYS
TAF
KCYS 311120Z 3112/0112 29022G34KT P6SM SCT100
     FM311600 34012G23KT P6SM SCT100
     FM311900 18010G20KT P6SM VCTS BKN080CB
     FM010100 18010KT P6SM SCT080
     FM010400 24008KT P6SM SCT080=



000
FTUS45 KCYS 311120
TAFLAR
TAF
KLAR 311120Z 3112/0112 24009KT P6SM VCSH BKN090
     FM311800 15010G20KT P6SM VCTS BKN070CB
     FM010100 17008KT P6SM BKN100=



000
FTUS45 KCYS 311120
TAFCYS
TAF
KCYS 311120Z 3112/0112 29022G34KT P6SM SCT100
     FM311600 34012G23KT P6SM SCT100
     FM311900 18010G20KT P6SM VCTS BKN080CB
     FM010100 18010KT P6SM SCT080
     FM010400 24008KT P6SM SCT080=



000
FTUS45 KCYS 311120
TAFRWL
TAF
KRWL 311120Z 3112/0112 24015G25KT P6SM BKN120
     FM311900 24018G30KT P6SM BKN090
     FM010100 24008KT P6SM SCT090=



000
FTUS45 KCYS 311120
TAFCYS
TAF
KCYS 311120Z 3112/0112 29022G34KT P6SM SCT100
     FM311600 34012G23KT P6SM SCT100
     FM311900 18010G20KT P6SM VCTS BKN080CB
     FM010100 18010KT P6SM SCT080
     FM010400 24008KT P6SM SCT080=



000
FTUS45 KCYS 311120
TAFRWL
TAF
KRWL 311120Z 3112/0112 24015G25KT P6SM BKN120
     FM311900 24018G30KT P6SM BKN090
     FM010100 24008KT P6SM SCT090=



000
FTUS45 KCYS 311120
TAFRWL
TAF
KRWL 311120Z 3112/0112 24015G25KT P6SM BKN120
     FM311900 24018G30KT P6SM BKN090
     FM010100 24008KT P6SM SCT090=



000
FTUS45 KCYS 311120
TAFLAR
TAF
KLAR 311120Z 3112/0112 24009KT P6SM VCSH BKN090
     FM311800 15010G20KT P6SM VCTS BKN070CB
     FM010100 17008KT P6SM BKN100=



000
FTUS45 KCYS 311120
TAFLAR
TAF
KLAR 311120Z 3112/0112 24009KT P6SM VCSH BKN090
     FM311800 15010G20KT P6SM VCTS BKN070CB
     FM010100 17008KT P6SM BKN100=



000
FTUS45 KCYS 311120
TAFRWL
TAF
KRWL 311120Z 3112/0112 24015G25KT P6SM BKN120
     FM311900 24018G30KT P6SM BKN090
     FM010100 24008KT P6SM SCT090=



000
FTUS45 KCYS 311010 AAA
TAFRWL
TAF AMD
KRWL 311010Z 3110/0106 25016G25KT P6SM BKN120
     FM311800 24015G23KT P6SM SCT200=



000
FTUS45 KCYS 311009 AAA
TAFCYS
TAF AMD
KCYS 311009Z 3110/0106 28022G35KT P6SM SCT060 BKN100
     FM311200 31012KT P6SM BKN100
     FM312000 17009KT P6SM BKN090=



000
FTUS45 KCYS 311009 AAA
TAFCYS
TAF AMD
KCYS 311009Z 3110/0106 28022G35KT P6SM SCT060 BKN100
     FM311200 31012KT P6SM BKN100
     FM312000 17009KT P6SM BKN090=



000
FTUS45 KCYS 311009 AAA
TAFCYS
TAF AMD
KCYS 311009Z 3110/0106 28022G35KT P6SM SCT060 BKN100
     FM311200 31012KT P6SM BKN100
     FM312000 17009KT P6SM BKN090=



000
FTUS45 KCYS 310600 CCA
TAFLAR
TAF COR
KLAR 310600Z 3106/0106 20011KT P6SM SCT110 BKN150
     FM311800 16009KT P6SM VCSH BKN090=



000
FTUS45 KCYS 310600 CCA
TAFLAR
TAF COR
KLAR 310600Z 3106/0106 20011KT P6SM SCT110 BKN150
     FM311800 16009KT P6SM VCSH BKN090=



000
FTUS45 KCYS 310600 CCA
TAFLAR
TAF COR
KLAR 310600Z 3106/0106 20011KT P6SM SCT110 BKN150
     FM311800 16009KT P6SM VCSH BKN090=



000
FTUS45 KCYS 310600 CCA
TAFLAR
TAF COR
KLAR 310600Z 3106/0106 20011KT P6SM SCT110 BKN150
     FM311800 16009KT P6SM VCSH BKN090=



000
FTUS45 KCYS 310520
TAFRWL
TAF
KRWL 310520Z 3106/0106 24011KT P6SM OVC150
     FM311800 24015G23KT P6SM SCT200=



000
FTUS45 KCYS 310520
TAFLAR
TAF
KLAR 310520Z 3106/0106 19008KT P6SM SCT110 BKN150
     FM311800 16009KT P6SM VCSH BKN090=



000
FTUS45 KCYS 310520
TAFRWL
TAF
KRWL 310520Z 3106/0106 24011KT P6SM OVC150
     FM311800 24015G23KT P6SM SCT200=



000
FTUS45 KCYS 310520
TAFCYS
TAF
KCYS 310520Z 3106/0106 30009KT P6SM BKN150
     FM312000 17009KT P6SM BKN090=



000
FTUS45 KCYS 310520
TAFRWL
TAF
KRWL 310520Z 3106/0106 24011KT P6SM OVC150
     FM311800 24015G23KT P6SM SCT200=



000
FTUS45 KCYS 310520
TAFCYS
TAF
KCYS 310520Z 3106/0106 30009KT P6SM BKN150
     FM312000 17009KT P6SM BKN090=



000
FTUS45 KCYS 310520
TAFCYS
TAF
KCYS 310520Z 3106/0106 30009KT P6SM BKN150
     FM312000 17009KT P6SM BKN090=



000
FTUS45 KCYS 310520
TAFLAR
TAF
KLAR 310520Z 3106/0106 19008KT P6SM SCT110 BKN150
     FM311800 16009KT P6SM VCSH BKN090=



000
FTUS45 KCYS 310520
TAFLAR
TAF
KLAR 310520Z 3106/0106 19008KT P6SM SCT110 BKN150
     FM311800 16009KT P6SM VCSH BKN090=



000
FTUS45 KCYS 310234 AAA
TAFRWL
TAF AMD
KRWL 310234Z 3103/3124 24012G18KT P6SM SCT100 BKN140
     FM310800 24006KT P6SM SCT200=



000
FTUS45 KCYS 310234 AAA
TAFRWL
TAF AMD
KRWL 310234Z 3103/3124 24012G18KT P6SM SCT100 BKN140
     FM310800 24006KT P6SM SCT200=



000
FTUS45 KCYS 310001 CCB
TAFCYS
TAF COR
KCYS 310001Z 3100/3124 VRB04KT P6SM VCSH BKN120
     FM310600 30012KT P6SM SCT100 BKN150
     FM312000 17009KT P6SM BKN090=



000
FTUS45 KCYS 310001 CCB
TAFCYS
TAF COR
KCYS 310001Z 3100/3124 VRB04KT P6SM VCSH BKN120
     FM310600 30012KT P6SM SCT100 BKN150
     FM312000 17009KT P6SM BKN090=



000
FTUS45 KCYS 310001 CCB
TAFCYS
TAF COR
KCYS 310001Z 3100/3124 VRB04KT P6SM VCSH BKN120
     FM310600 30012KT P6SM SCT100 BKN150
     FM312000 17009KT P6SM BKN090=



000
FTUS45 KCYS 310001 CCB
TAFCYS
TAF COR
KCYS 310001Z 3100/3124 VRB04KT P6SM VCSH BKN120
     FM310600 30012KT P6SM SCT100 BKN150
     FM312000 17009KT P6SM BKN090=



000
FTUS45 KCYS 310000 CCA
TAFLAR
TAF COR
KLAR 310000Z 3100/3124 23010KT P6SM VCTS FEW080CB BKN130
     FM310200 24008KT P6SM SCT080 BKN150
     FM311700 17009KT P6SM BKN090=



000
FTUS45 KCYS 310000 CCA
TAFLAR
TAF COR
KLAR 310000Z 3100/3124 23010KT P6SM VCTS FEW080CB BKN130
     FM310200 24008KT P6SM SCT080 BKN150
     FM311700 17009KT P6SM BKN090=



000
FTUS45 KCYS 310000 CCA
TAFLAR
TAF COR
KLAR 310000Z 3100/3124 23010KT P6SM VCTS FEW080CB BKN130
     FM310200 24008KT P6SM SCT080 BKN150
     FM311700 17009KT P6SM BKN090=



000
FTUS45 KCYS 302359 CCA
TAFRWL
TAF COR
KRWL 302359Z 3100/3124 29012KT P6SM SCT100 BKN140
     FM310800 24006KT P6SM SCT200=



000
FTUS45 KCYS 302359 CCA
TAFRWL
TAF COR
KRWL 302359Z 3100/3124 29012KT P6SM SCT100 BKN140
     FM310800 24006KT P6SM SCT200=



000
FTUS45 KCYS 302359 CCA
TAFRWL
TAF COR
KRWL 302359Z 3100/3124 29012KT P6SM SCT100 BKN140
     FM310800 24006KT P6SM SCT200=



000
FTUS45 KCYS 302359 CCA
TAFRWL
TAF COR
KRWL 302359Z 3100/3124 29012KT P6SM SCT100 BKN140
     FM310800 24006KT P6SM SCT200=



000
FTUS45 KCYS 302320
TAFLAR
TAF
KLAR 302320Z 3100/3124 23015KT P6SM VCTS FEW080CB BKN110
     FM310200 24008KT P6SM SCT080 BKN150
     FM311700 17009KT P6SM BKN090=



000
FTUS45 KCYS 302320
TAFCYS
TAF
KCYS 302320Z 3100/3124 30005KT P6SM VCSH BKN150
     FM310600 30012KT P6SM SCT100 BKN150
     FM312000 17009KT P6SM BKN090=



000
FTUS45 KCYS 302320
TAFCYS
TAF
KCYS 302320Z 3100/3124 30005KT P6SM VCSH BKN150
     FM310600 30012KT P6SM SCT100 BKN150
     FM312000 17009KT P6SM BKN090=



000
FTUS45 KCYS 302320
TAFRWL
TAF
KRWL 302320Z 3100/3124 29015G24KT P6SM BKN090
     FM310200 27012KT P6SM BKN100
     FM310800 24006KT P6SM SCT200=



000
FTUS45 KCYS 302320
TAFLAR
TAF
KLAR 302320Z 3100/3124 23015KT P6SM VCTS FEW080CB BKN110
     FM310200 24008KT P6SM SCT080 BKN150
     FM311700 17009KT P6SM BKN090=



000
FTUS45 KCYS 302320
TAFLAR
TAF
KLAR 302320Z 3100/3124 23015KT P6SM VCTS FEW080CB BKN110
     FM310200 24008KT P6SM SCT080 BKN150
     FM311700 17009KT P6SM BKN090=



000
FTUS45 KCYS 302320
TAFRWL
TAF
KRWL 302320Z 3100/3124 29015G24KT P6SM BKN090
     FM310200 27012KT P6SM BKN100
     FM310800 24006KT P6SM SCT200=



000
FTUS45 KCYS 302320
TAFCYS
TAF
KCYS 302320Z 3100/3124 30005KT P6SM VCSH BKN150
     FM310600 30012KT P6SM SCT100 BKN150
     FM312000 17009KT P6SM BKN090=



000
FTUS45 KCYS 302320
TAFRWL
TAF
KRWL 302320Z 3100/3124 29015G24KT P6SM BKN090
     FM310200 27012KT P6SM BKN100
     FM310800 24006KT P6SM SCT200=



000
FTUS45 KCYS 302249 AAB
TAFCYS
TAF AMD
KCYS 302249Z 3023/3118 25010KT P6SM VCSH BKN150
     FM310900 30012KT P6SM BKN100
     FM311200 29010KT P6SM BKN090=



000
FTUS45 KCYS 302249 AAB
TAFCYS
TAF AMD
KCYS 302249Z 3023/3118 25010KT P6SM VCSH BKN150
     FM310900 30012KT P6SM BKN100
     FM311200 29010KT P6SM BKN090=



000
FTUS45 KCYS 302057 AAA
TAFLAR
TAF AMD
KLAR 302057Z 3021/3118 18012G20KT P6SM VCTS SCT070CB
     FM310000 23014KT P6SM VCTS BKN080CB
     FM310600 23008KT P6SM VCSH BKN080=



000
FTUS45 KCYS 302057 AAA
TAFLAR
TAF AMD
KLAR 302057Z 3021/3118 18012G20KT P6SM VCTS SCT070CB
     FM310000 23014KT P6SM VCTS BKN080CB
     FM310600 23008KT P6SM VCSH BKN080=



000
FTUS45 KCYS 302057 AAA
TAFLAR
TAF AMD
KLAR 302057Z 3021/3118 18012G20KT P6SM VCTS SCT070CB
     FM310000 23014KT P6SM VCTS BKN080CB
     FM310600 23008KT P6SM VCSH BKN080=



000
FTUS45 KCYS 302057 AAA
TAFLAR
TAF AMD
KLAR 302057Z 3021/3118 18012G20KT P6SM VCTS SCT070CB
     FM310000 23014KT P6SM VCTS BKN080CB
     FM310600 23008KT P6SM VCSH BKN080=



000
FTUS45 KCYS 301800 CCA
TAFLAR
TAF COR
KLAR 301800Z 3018/3118 25015G25KT P6SM SKC
     FM302100 24014G24KT P6SM BKN150
     FM310000 23014KT P6SM VCTS BKN080CB
     FM310600 23008KT P6SM VCSH BKN080=



000
FTUS45 KCYS 301800 CCA
TAFLAR
TAF COR
KLAR 301800Z 3018/3118 25015G25KT P6SM SKC
     FM302100 24014G24KT P6SM BKN150
     FM310000 23014KT P6SM VCTS BKN080CB
     FM310600 23008KT P6SM VCSH BKN080=



000
FTUS45 KCYS 301800 CCA
TAFLAR
TAF COR
KLAR 301800Z 3018/3118 25015G25KT P6SM SKC
     FM302100 24014G24KT P6SM BKN150
     FM310000 23014KT P6SM VCTS BKN080CB
     FM310600 23008KT P6SM VCSH BKN080=



000
FTUS45 KCYS 301759 CCA
TAFCYS
TAF COR
KCYS 301759Z 3018/3118 29015G28KT P6SM SKC
     FM310100 25012KT P6SM BKN150
     FM310900 30012KT P6SM VCSH BKN100
     FM311200 29010KT P6SM BKN090=



000
FTUS45 KCYS 301759 CCA
TAFCYS
TAF COR
KCYS 301759Z 3018/3118 29015G28KT P6SM SKC
     FM310100 25012KT P6SM BKN150
     FM310900 30012KT P6SM VCSH BKN100
     FM311200 29010KT P6SM BKN090=



000
FTUS45 KCYS 301759 CCA
TAFCYS
TAF COR
KCYS 301759Z 3018/3118 29015G28KT P6SM SKC
     FM310100 25012KT P6SM BKN150
     FM310900 30012KT P6SM VCSH BKN100
     FM311200 29010KT P6SM BKN090=



000
FTUS45 KCYS 301720
TAFRWL
TAF
KRWL 301720Z 3018/3118 25014G24KT P6SM SCT120
     FM302100 23018G26KT P6SM VCTS SCT080CB BKN250
     FM310200 23012KT P6SM BKN150
     FM310800 24006KT P6SM SCT200=



000
FTUS45 KCYS 301720
TAFCYS
TAF
KCYS 301720Z 3018/3118 27015G28KT P6SM SKC
     FM310100 25012KT P6SM BKN150
     FM310900 30012KT P6SM VCSH BKN100
     FM311200 29010KT P6SM BKN090=



000
FTUS45 KCYS 301720
TAFLAR
TAF
KLAR 301720Z 3018/3118 23015G25KT P6SM SKC
     FM302100 24014G24KT P6SM BKN150
     FM310000 23014KT P6SM VCTS BKN080CB
     FM310600 23008KT P6SM VCSH BKN080=



000
FTUS45 KCYS 301720
TAFRWL
TAF
KRWL 301720Z 3018/3118 25014G24KT P6SM SCT120
     FM302100 23018G26KT P6SM VCTS SCT080CB BKN250
     FM310200 23012KT P6SM BKN150
     FM310800 24006KT P6SM SCT200=



000
FTUS45 KCYS 301720
TAFLAR
TAF
KLAR 301720Z 3018/3118 23015G25KT P6SM SKC
     FM302100 24014G24KT P6SM BKN150
     FM310000 23014KT P6SM VCTS BKN080CB
     FM310600 23008KT P6SM VCSH BKN080=



000
FTUS45 KCYS 301720
TAFCYS
TAF
KCYS 301720Z 3018/3118 27015G28KT P6SM SKC
     FM310100 25012KT P6SM BKN150
     FM310900 30012KT P6SM VCSH BKN100
     FM311200 29010KT P6SM BKN090=



000
FTUS45 KCYS 301130
TAFRWL
TAF
KRWL 301130Z 3012/3112 22008KT P6SM SCT250
     FM301600 22014G24KT P6SM SCT250
     FM301900 23020G30KT P6SM VCTS SCT080CB BKN250
     FM310200 25012KT P6SM BKN250=



000
FTUS45 KCYS 301130
TAFLAR
TAF
KLAR 301130Z 3012/3112 19010KT P6SM SCT250
     FM301700 23014G22KT P6SM SCT080 SCT250
     FM302100 22014G24KT P6SM VCTS SCT080CB BKN150
     FM310200 23012KT P6SM BKN200=



000
FTUS45 KCYS 301130
TAFCYS
TAF
KCYS 301130Z 3012/3112 27010KT P6SM SCT250
     FM301700 23012G20KT P6SM FEW080 SCT250
     FM310100 26012KT P6SM VCTS SCT080CB BKN150
     FM310500 29012KT P6SM BKN100=



000
FTUS45 KCYS 301130
TAFRWL
TAF
KRWL 301130Z 3012/3112 22008KT P6SM SCT250
     FM301600 22014G24KT P6SM SCT250
     FM301900 23020G30KT P6SM VCTS SCT080CB BKN250
     FM310200 25012KT P6SM BKN250=



000
FTUS45 KCYS 301130
TAFCYS
TAF
KCYS 301130Z 3012/3112 27010KT P6SM SCT250
     FM301700 23012G20KT P6SM FEW080 SCT250
     FM310100 26012KT P6SM VCTS SCT080CB BKN150
     FM310500 29012KT P6SM BKN100=



000
FTUS45 KCYS 301130
TAFLAR
TAF
KLAR 301130Z 3012/3112 19010KT P6SM SCT250
     FM301700 23014G22KT P6SM SCT080 SCT250
     FM302100 22014G24KT P6SM VCTS SCT080CB BKN150
     FM310200 23012KT P6SM BKN200=



000
FTUS45 KCYS 301130
TAFLAR
TAF
KLAR 301130Z 3012/3112 19010KT P6SM SCT250
     FM301700 23014G22KT P6SM SCT080 SCT250
     FM302100 22014G24KT P6SM VCTS SCT080CB BKN150
     FM310200 23012KT P6SM BKN200=



000
FTUS45 KCYS 301130
TAFLAR
TAF
KLAR 301130Z 3012/3112 19010KT P6SM SCT250
     FM301700 23014G22KT P6SM SCT080 SCT250
     FM302100 22014G24KT P6SM VCTS SCT080CB BKN150
     FM310200 23012KT P6SM BKN200=



000
FTUS45 KCYS 301130
TAFCYS
TAF
KCYS 301130Z 3012/3112 27010KT P6SM SCT250
     FM301700 23012G20KT P6SM FEW080 SCT250
     FM310100 26012KT P6SM VCTS SCT080CB BKN150
     FM310500 29012KT P6SM BKN100=



000
FTUS45 KCYS 301130
TAFCYS
TAF
KCYS 301130Z 3012/3112 27010KT P6SM SCT250
     FM301700 23012G20KT P6SM FEW080 SCT250
     FM310100 26012KT P6SM VCTS SCT080CB BKN150
     FM310500 29012KT P6SM BKN100=



000
FTUS45 KCYS 301130
TAFRWL
TAF
KRWL 301130Z 3012/3112 22008KT P6SM SCT250
     FM301600 22014G24KT P6SM SCT250
     FM301900 23020G30KT P6SM VCTS SCT080CB BKN250
     FM310200 25012KT P6SM BKN250=



000
FTUS45 KCYS 301130
TAFRWL
TAF
KRWL 301130Z 3012/3112 22008KT P6SM SCT250
     FM301600 22014G24KT P6SM SCT250
     FM301900 23020G30KT P6SM VCTS SCT080CB BKN250
     FM310200 25012KT P6SM BKN250=



000
FTUS45 KCYS 300520
TAFCYS
TAF
KCYS 300520Z 3006/3106 18010KT P6SM SKC
     FM300900 24008KT P6SM SKC
     FM301700 23012G18KT P6SM SCT300=



000
FTUS45 KCYS 300520
TAFLAR
TAF
KLAR 300520Z 3006/3106 19010KT P6SM SKC
     FM301600 24014G20KT P6SM SCT250=



000
FTUS45 KCYS 300520
TAFLAR
TAF
KLAR 300520Z 3006/3106 19010KT P6SM SKC
     FM301600 24014G20KT P6SM SCT250=



000
FTUS45 KCYS 300520
TAFRWL
TAF
KRWL 300520Z 3006/3106 23008KT P6SM SKC
     FM301600 22008KT P6SM SCT250
     FM301800 23018G25KT P6SM BKN250=



000
FTUS45 KCYS 300520
TAFRWL
TAF
KRWL 300520Z 3006/3106 23008KT P6SM SKC
     FM301600 22008KT P6SM SCT250
     FM301800 23018G25KT P6SM BKN250=



000
FTUS45 KCYS 300520
TAFCYS
TAF
KCYS 300520Z 3006/3106 18010KT P6SM SKC
     FM300900 24008KT P6SM SKC
     FM301700 23012G18KT P6SM SCT300=



000
FTUS45 KCYS 292320
TAFLAR
TAF
KLAR 292320Z 3000/3024 18008KT P6SM SKC
     FM301500 24012G20KT P6SM SCT250=



000
FTUS45 KCYS 292320
TAFRWL
TAF
KRWL 292320Z 3000/3024 21007KT P6SM SKC
     FM301600 22010G17KT P6SM FEW250
     FM301800 23019G27KT P6SM SCT250=



000
FTUS45 KCYS 292320
TAFCYS
TAF
KCYS 292320Z 3000/3024 18010KT P6SM SKC
     FM300600 23008KT P6SM SKC
     FM301700 23010G18KT P6SM SCT250=



000
FTUS45 KCYS 292320
TAFLAR
TAF
KLAR 292320Z 3000/3024 18008KT P6SM SKC
     FM301500 24012G20KT P6SM SCT250=



000
FTUS45 KCYS 292320
TAFRWL
TAF
KRWL 292320Z 3000/3024 21007KT P6SM SKC
     FM301600 22010G17KT P6SM FEW250
     FM301800 23019G27KT P6SM SCT250=



000
FTUS45 KCYS 292320
TAFCYS
TAF
KCYS 292320Z 3000/3024 18010KT P6SM SKC
     FM300600 23008KT P6SM SKC
     FM301700 23010G18KT P6SM SCT250=



000
FTUS45 KCYS 292320
TAFRWL
TAF
KRWL 292320Z 3000/3024 21007KT P6SM SKC
     FM301600 22010G17KT P6SM FEW250
     FM301800 23019G27KT P6SM SCT250=



000
FTUS45 KCYS 292320
TAFCYS
TAF
KCYS 292320Z 3000/3024 18010KT P6SM SKC
     FM300600 23008KT P6SM SKC
     FM301700 23010G18KT P6SM SCT250=



000
FTUS45 KCYS 292320
TAFLAR
TAF
KLAR 292320Z 3000/3024 18008KT P6SM SKC
     FM301500 24012G20KT P6SM SCT250=



000
FTUS45 KCYS 292320
TAFCYS
TAF
KCYS 292320Z 3000/3024 18010KT P6SM SKC
     FM300600 23008KT P6SM SKC
     FM301700 23010G18KT P6SM SCT250=



000
FTUS45 KCYS 291730
TAFCYS
TAF
KCYS 291730Z 2918/3018 18010KT P6SM SKC
     FM300600 23008KT P6SM SKC
     FM301600 26010KT P6SM SKC=



000
FTUS45 KCYS 291730
TAFCYS
TAF
KCYS 291730Z 2918/3018 18010KT P6SM SKC
     FM300600 23008KT P6SM SKC
     FM301600 26010KT P6SM SKC=



000
FTUS45 KCYS 291730
TAFRWL
TAF
KRWL 291730Z 2918/3018 22008KT P6SM SKC
     FM300900 23009KT P6SM SCT250=



000
FTUS45 KCYS 291730
TAFLAR
TAF
KLAR 291730Z 2918/3018 19010KT P6SM SKC
     FM301500 23010KT P6SM SCT200=



000
FTUS45 KCYS 291730
TAFRWL
TAF
KRWL 291730Z 2918/3018 22008KT P6SM SKC
     FM300900 23009KT P6SM SCT250=



000
FTUS45 KCYS 291730
TAFLAR
TAF
KLAR 291730Z 2918/3018 19010KT P6SM SKC
     FM301500 23010KT P6SM SCT200=



000
FTUS45 KCYS 291730
TAFCYS
TAF
KCYS 291730Z 2918/3018 18010KT P6SM SKC
     FM300600 23008KT P6SM SKC
     FM301600 26010KT P6SM SKC=



000
FTUS45 KCYS 291730
TAFLAR
TAF
KLAR 291730Z 2918/3018 19010KT P6SM SKC
     FM301500 23010KT P6SM SCT200=



000
FTUS45 KCYS 291730
TAFLAR
TAF
KLAR 291730Z 2918/3018 19010KT P6SM SKC
     FM301500 23010KT P6SM SCT200=



000
FTUS45 KCYS 291730
TAFCYS
TAF
KCYS 291730Z 2918/3018 18010KT P6SM SKC
     FM300600 23008KT P6SM SKC
     FM301600 26010KT P6SM SKC=



000
FTUS45 KCYS 291730
TAFRWL
TAF
KRWL 291730Z 2918/3018 22008KT P6SM SKC
     FM300900 23009KT P6SM SCT250=



000
FTUS45 KCYS 291730
TAFRWL
TAF
KRWL 291730Z 2918/3018 22008KT P6SM SKC
     FM300900 23009KT P6SM SCT250=



000
FTUS45 KCYS 291122
TAFRWL
TAF
KRWL 291122Z 2912/3012 VRB05KT P6SM SKC
     FM291700 21012G22KT P6SM SKC
     FM300100 23009KT P6SM SKC=



000
FTUS45 KCYS 291122
TAFLAR
TAF
KLAR 291122Z 2912/3012 19010KT P6SM SKC=



000
FTUS45 KCYS 291122
TAFCYS
TAF
KCYS 291122Z 2912/3012 27007KT P6SM SKC
     FM291700 19011G17KT P6SM SKC
     FM300100 18008KT P6SM SKC=



000
FTUS45 KCYS 291122
TAFLAR
TAF
KLAR 291122Z 2912/3012 19010KT P6SM SKC=



000
FTUS45 KCYS 291122
TAFRWL
TAF
KRWL 291122Z 2912/3012 VRB05KT P6SM SKC
     FM291700 21012G22KT P6SM SKC
     FM300100 23009KT P6SM SKC=



000
FTUS45 KCYS 291122
TAFLAR
TAF
KLAR 291122Z 2912/3012 19010KT P6SM SKC=



000
FTUS45 KCYS 291122
TAFCYS
TAF
KCYS 291122Z 2912/3012 27007KT P6SM SKC
     FM291700 19011G17KT P6SM SKC
     FM300100 18008KT P6SM SKC=



000
FTUS45 KCYS 291122
TAFCYS
TAF
KCYS 291122Z 2912/3012 27007KT P6SM SKC
     FM291700 19011G17KT P6SM SKC
     FM300100 18008KT P6SM SKC=



000
FTUS45 KCYS 291122
TAFRWL
TAF
KRWL 291122Z 2912/3012 VRB05KT P6SM SKC
     FM291700 21012G22KT P6SM SKC
     FM300100 23009KT P6SM SKC=



000
FTUS45 KCYS 291122
TAFLAR
TAF
KLAR 291122Z 2912/3012 19010KT P6SM SKC=



000
FTUS45 KCYS 291122
TAFCYS
TAF
KCYS 291122Z 2912/3012 27007KT P6SM SKC
     FM291700 19011G17KT P6SM SKC
     FM300100 18008KT P6SM SKC=



000
FTUS45 KCYS 291122
TAFRWL
TAF
KRWL 291122Z 2912/3012 VRB05KT P6SM SKC
     FM291700 21012G22KT P6SM SKC
     FM300100 23009KT P6SM SKC=



    US Dept of Commerce
    National Oceanic and Atmospheric Administration
    National Weather Service
    1325 East West Highway
    Silver Spring, MD 20910
    Page Author: NWS Internet Services Team
Disclaimer
Information Quality
Credits
Glossary
Privacy Policy
Freedom of Information Act (FOIA)
About Us
Career Opportunities